Time;durP1;ratioP1;P1;durP2;ratioP2;P2;SDS_P1;SDS_P2;PMS_P1;PMS_P2;Temp;Humidity;BMP_temperature;BMP_pressure;BME280_temperature;BME280_humidity;BME280_pressure;Samples;Min_cycle;Max_cycle;Signal;HPM_P1;HPM_P2
2022/07/28 05:37:55;;;;;;;4.20;3.03;;;11.80;99.90;;;;;;6293187;22;20472;-82
2022/07/28 05:40:21;;;;;;;5.93;3.38;;;11.80;99.90;;;;;;6256854;22;20015;-83
2022/07/28 05:46:32;;;;;;;5.22;3.20;;;11.90;99.90;;;;;;6245127;23;20036;-85
2022/07/28 05:48:57;;;;;;;9.38;3.25;;;11.90;99.90;;;;;;6282142;22;20035;-82
2022/07/28 05:51:23;;;;;;;5.40;3.10;;;12.00;99.90;;;;;;6309076;22;20014;-77
2022/07/28 05:53:49;;;;;;;6.75;2.88;;;12.00;99.90;;;;;;6309339;22;20533;-87
2022/07/28 05:56:15;;;;;;;6.22;2.90;;;12.10;99.90;;;;;;6256471;22;20367;-84
2022/07/28 05:58:41;;;;;;;4.63;2.58;;;12.10;99.90;;;;;;6281045;22;20023;-84
2022/07/28 06:01:06;;;;;;;6.38;2.80;;;12.30;99.90;;;;;;6309555;22;20018;-85
2022/07/28 06:03:33;;;;;;;5.88;2.28;;;12.30;99.90;;;;;;6281917;22;20019;-85
2022/07/28 06:05:59;;;;;;;6.45;2.50;;;12.40;99.90;;;;;;6308972;22;20441;-87
2022/07/28 06:08:25;;;;;;;4.03;2.67;;;12.40;99.90;;;;;;6282028;22;20077;-85
2022/07/28 06:11:01;;;;;;;8.02;2.70;;;12.50;99.90;;;;;;6282048;22;20405;-86
2022/07/28 06:13:28;;;;;;;7.47;2.65;;;12.60;99.90;;;;;;6281829;22;20086;-86
2022/07/28 06:15:54;;;;;;;5.22;2.50;;;12.70;99.90;;;;;;6309751;22;20019;-86
2022/07/28 06:18:21;;;;;;;5.25;2.70;;;12.80;99.90;;;;;;6282153;22;20011;-86
2022/07/28 06:20:47;;;;;;;8.80;2.85;;;12.80;99.90;;;;;;6309051;22;20391;-87
2022/07/28 06:23:17;;;;;;;6.65;2.47;;;12.90;99.90;;;;;;6282899;22;20094;-88
2022/07/28 06:25:43;;;;;;;5.93;2.80;;;13.00;99.90;;;;;;6281329;22;20318;-86
2022/07/28 06:28:09;;;;;;;3.80;2.70;;;13.00;99.90;;;;;;6310176;22;20093;-87
2022/07/28 06:30:35;;;;;;;5.32;2.30;;;13.10;99.90;;;;;;6309146;22;20009;-87
2022/07/28 06:33:00;;;;;;;7.00;2.80;;;13.20;99.90;;;;;;6283461;22;20019;-85
2022/07/28 06:35:26;;;;;;;11.18;3.67;;;13.30;99.90;;;;;;6282540;22;20086;-84
2022/07/28 06:37:52;;;;;;;5.88;2.45;;;13.40;99.90;;;;;;6282840;22;20415;-86
2022/07/28 06:40:19;;;;;;;6.78;2.60;;;13.50;99.90;;;;;;6256996;22;20018;-86
2022/07/28 06:42:45;;;;;;;5.60;2.47;;;13.60;99.90;;;;;;6310384;22;20052;-85
2022/07/28 06:45:12;;;;;;;5.93;2.58;;;13.60;99.90;;;;;;6281695;22;20011;-80
2022/07/28 06:47:38;;;;;;;6.40;2.60;;;13.70;99.90;;;;;;6309951;22;20090;-85
2022/07/28 06:50:04;;;;;;;6.43;2.50;;;13.80;99.90;;;;;;6259899;22;20015;-86
2022/07/28 06:52:31;;;;;;;5.13;2.13;;;13.90;99.90;;;;;;6283733;22;20532;-84
2022/07/28 06:54:56;;;;;;;5.32;2.13;;;13.90;99.90;;;;;;6259112;22;20019;-84
2022/07/28 06:57:22;;;;;;;5.20;2.13;;;14.00;99.90;;;;;;6310903;22;20008;-84
2022/07/28 06:59:48;;;;;;;3.33;2.08;;;14.10;99.90;;;;;;6312991;22;20060;-84
2022/07/28 07:02:15;;;;;;;9.55;3.45;;;14.10;99.90;;;;;;6311242;22;20011;-87
2022/07/28 07:04:42;;;;;;;4.97;2.35;;;14.20;99.90;;;;;;6259945;22;20444;-84
2022/07/28 07:07:08;;;;;;;5.25;2.85;;;14.20;99.90;;;;;;6283724;22;20046;-85
2022/07/28 07:09:33;;;;;;;6.03;2.35;;;14.30;99.90;;;;;;6284125;22;20022;-83
2022/07/28 07:11:59;;;;;;;5.57;2.55;;;14.40;99.90;;;;;;6259087;22;20112;-85
2022/07/28 07:14:25;;;;;;;9.73;2.50;;;14.40;99.90;;;;;;6283798;22;20098;-85
2022/07/28 07:16:52;;;;;;;5.50;2.38;;;14.40;99.90;;;;;;6312716;22;20015;-87
2022/07/28 07:19:19;;;;;;;5.47;1.50;;;14.50;99.90;;;;;;6283759;22;20375;-84
2022/07/28 07:21:46;;;;;;;7.18;1.80;;;14.50;99.90;;;;;;6284634;22;20531;-84
2022/07/28 07:24:11;;;;;;;7.57;1.90;;;14.60;99.90;;;;;;6258917;22;20417;-86
2022/07/28 07:26:37;;;;;;;3.38;1.50;;;14.60;99.90;;;;;;6284471;22;20015;-85
2022/07/28 07:29:04;;;;;;;4.82;1.50;;;14.70;99.90;;;;;;6311885;22;20047;-84
2022/07/28 07:31:32;;;;;;;4.45;1.30;;;14.80;99.90;;;;;;6282825;22;20517;-85
2022/07/28 07:33:58;;;;;;;3.65;1.23;;;14.90;99.90;;;;;;6312383;22;20019;-85
2022/07/28 07:36:24;;;;;;;5.90;1.50;;;15.00;99.90;;;;;;6282697;22;20011;-85
2022/07/28 07:38:49;;;;;;;3.58;1.10;;;15.00;99.90;;;;;;6283685;22;20340;-86
2022/07/28 07:41:16;;;;;;;6.40;1.30;;;15.10;99.90;;;;;;6282907;22;20015;-86
2022/07/28 07:43:42;;;;;;;6.07;1.52;;;15.20;99.90;;;;;;6312833;22;20007;-83
2022/07/28 07:46:08;;;;;;;9.98;1.40;;;15.20;99.90;;;;;;6257390;22;20467;-85
2022/07/28 07:48:33;;;;;;;6.18;1.45;;;15.30;99.90;;;;;;6283928;22;20011;-84
2022/07/28 07:50:59;;;;;;;7.90;1.30;;;15.40;99.90;;;;;;6283696;22;20054;-86
2022/07/28 07:53:25;;;;;;;2.80;0.95;;;15.40;99.90;;;;;;6283181;22;20321;-85
2022/07/28 07:55:51;;;;;;;4.13;1.25;;;15.40;99.90;;;;;;6284603;22;20042;-85
2022/07/28 07:58:17;;;;;;;4.38;1.10;;;15.50;99.90;;;;;;6282708;22;20015;-85
2022/07/28 08:00:42;;;;;;;4.32;0.98;;;15.60;99.90;;;;;;6284439;22;20019;-85
2022/07/28 08:03:08;;;;;;;6.38;1.27;;;15.70;99.90;;;;;;6283169;22;20016;-84
2022/07/28 08:05:33;;;;;;;4.55;1.08;;;15.80;99.90;;;;;;6282454;22;20022;-85
2022/07/28 08:07:59;;;;;;;8.32;1.25;;;15.80;99.90;;;;;;6282992;22;20019;-86
2022/07/28 08:10:25;;;;;;;5.60;1.38;;;15.90;99.90;;;;;;6282585;22;20072;-84
2022/07/28 08:12:51;;;;;;;5.63;1.13;;;15.90;99.90;;;;;;6284639;22;20007;-86
2022/07/28 08:15:16;;;;;;;4.18;1.00;;;16.10;99.90;;;;;;6310525;22;20003;-86
2022/07/28 08:17:42;;;;;;;5.03;1.38;;;16.30;99.90;;;;;;6283774;22;20050;-84
2022/07/28 08:20:08;;;;;;;5.95;1.00;;;16.40;99.90;;;;;;6282468;22;20015;-86
2022/07/28 08:22:47;;;;;;;4.45;1.00;;;16.50;99.90;;;;;;6282483;22;20429;-84
2022/07/28 08:25:13;;;;;;;5.28;1.40;;;16.50;99.90;;;;;;6282446;22;20013;-85
2022/07/28 08:27:38;;;;;;;2.20;0.82;;;16.60;99.90;;;;;;6282034;22;20402;-83
2022/07/28 08:30:05;;;;;;;2.78;0.80;;;16.70;99.90;;;;;;6282171;22;20015;-82
2022/07/28 08:32:30;;;;;;;4.72;0.90;;;16.80;99.90;;;;;;6310425;22;20011;-84
2022/07/28 08:34:56;;;;;;;2.42;0.80;;;17.00;99.90;;;;;;6310941;22;20003;-85
2022/07/28 08:37:21;;;;;;;3.00;1.15;;;17.00;99.90;;;;;;6283016;22;20015;-86
2022/07/28 08:39:47;;;;;;;2.78;0.70;;;17.00;99.90;;;;;;6257934;22;20022;-85
2022/07/28 08:42:37;;;;;;;5.47;1.60;;;17.00;99.90;;;;;;6283979;22;20386;-85
2022/07/28 08:45:06;;;;;;;3.83;0.90;;;17.00;99.90;;;;;;6284378;22;20019;-87
2022/07/28 08:47:34;;;;;;;4.75;0.90;;;17.00;99.90;;;;;;6311655;22;20087;-85
2022/07/28 08:50:01;;;;;;;4.07;0.90;;;17.10;99.90;;;;;;6298353;22;20015;-82
2022/07/28 08:52:32;;;;;;;5.75;1.10;;;17.00;99.90;;;;;;6325146;22;20039;-82
2022/07/28 08:55:03;;;;;;;3.63;0.95;;;17.00;99.90;;;;;;6289662;22;20038;-86
2022/07/28 08:57:30;;;;;;;3.65;1.05;;;17.00;99.90;;;;;;6312305;22;20007;-81
2022/07/28 08:59:56;;;;;;;4.10;0.90;;;17.00;99.90;;;;;;6266451;22;20019;-81
2022/07/28 09:02:27;;;;;;;2.30;0.80;;;17.00;99.90;;;;;;6293019;22;20376;-83
2022/07/28 09:04:57;;;;;;;4.25;0.90;;;17.00;99.90;;;;;;6291834;22;20329;-87
2022/07/28 09:07:25;;;;;;;3.20;0.90;;;17.00;99.90;;;;;;6310677;22;20008;-84
2022/07/28 09:09:51;;;;;;;3.45;0.80;;;17.00;99.90;;;;;;6282722;22;20007;-83
2022/07/28 09:12:17;;;;;;;4.07;0.80;;;17.00;99.90;;;;;;6255984;22;20129;-86
2022/07/28 09:14:43;;;;;;;3.80;1.00;;;16.90;99.90;;;;;;6281873;22;20061;-85
2022/07/28 09:17:09;;;;;;;2.88;0.98;;;17.00;99.90;;;;;;6281558;22;20089;-86
2022/07/28 09:19:37;;;;;;;5.75;1.35;;;17.00;99.90;;;;;;6281620;22;20015;-85
2022/07/28 09:22:04;;;;;;;4.82;1.00;;;17.00;99.90;;;;;;6281955;22;20496;-87
2022/07/28 09:24:45;;;;;;;3.88;1.00;;;17.10;99.90;;;;;;6281514;22;20424;-85
2022/07/28 09:27:13;;;;;;;5.93;1.30;;;17.00;99.90;;;;;;6308704;22;20058;-86
2022/07/28 09:29:44;;;;;;;7.80;1.30;;;17.00;99.90;;;;;;6281281;22;20026;-83
2022/07/28 09:32:12;;;;;;;4.75;1.20;;;17.00;99.90;;;;;;6255531;22;20043;-86
2022/07/28 09:34:46;;;;;;;6.13;1.98;;;17.00;99.90;;;;;;6308869;22;20007;-84
2022/07/28 09:37:25;;;;;;;4.35;1.20;;;17.00;99.90;;;;;;6280689;22;20336;-84
2022/07/28 09:39:53;;;;;;;5.07;1.50;;;17.00;99.90;;;;;;6281083;22;20023;-85
2022/07/28 09:42:19;;;;;;;7.03;1.40;;;17.10;99.90;;;;;;6308068;22;20516;-84
2022/07/28 09:45:01;;;;;;;3.33;1.02;;;17.10;99.90;;;;;;6280885;22;20060;-86
2022/07/28 09:47:30;;;;;;;5.05;1.70;;;17.20;99.90;;;;;;6281471;22;20061;-83
2022/07/28 09:49:55;;;;;;;3.00;1.00;;;17.30;99.90;;;;;;6281247;22;20051;-85
2022/07/28 09:52:31;;;;;;;3.72;1.10;;;17.50;99.90;;;;;;6281491;22;20069;-84
2022/07/28 09:55:05;;;;;;;3.45;1.05;;;17.60;99.90;;;;;;6309430;22;20039;-86
2022/07/28 09:57:32;;;;;;;4.75;1.30;;;17.70;99.90;;;;;;6281211;22;20026;-85
2022/07/28 09:59:58;;;;;;;2.90;1.02;;;17.80;99.90;;;;;;6281573;22;20022;-84
2022/07/28 10:02:30;;;;;;;3.33;1.08;;;17.90;99.90;;;;;;6308974;22;20007;-85
2022/07/28 10:04:58;;;;;;;2.70;0.90;;;18.00;99.90;;;;;;6281519;22;20011;-87
2022/07/28 10:07:27;;;;;;;3.55;1.20;;;18.20;99.90;;;;;;6255915;22;20008;-85
2022/07/28 10:10:03;;;;;;;5.47;1.00;;;18.30;99.90;;;;;;6309005;22;20047;-85
2022/07/28 10:12:31;;;;;;;3.35;1.08;;;18.40;99.90;;;;;;6309336;22;20476;-85
2022/07/28 10:16:09;;;;;;;2.83;0.70;;;18.80;99.90;;;;;;6309805;22;20007;-84
2022/07/28 10:17:55;;;;;;;3.63;1.23;;;19.00;99.90;;;;;;6309133;22;20016;-86
2022/07/28 10:20:22;;;;;;;3.38;0.70;;;19.10;99.90;;;;;;6282341;22;20086;-85
2022/07/28 10:22:51;;;;;;;3.50;0.80;;;19.20;99.90;;;;;;6284202;22;20018;-84
2022/07/28 10:25:20;;;;;;;5.03;1.25;;;19.10;99.90;;;;;;6284341;22;20103;-85
2022/07/28 10:27:47;;;;;;;2.88;1.02;;;19.20;99.90;;;;;;6284274;22;20059;-86
2022/07/28 10:30:13;;;;;;;3.33;0.85;;;19.30;99.90;;;;;;6284479;22;20020;-86
2022/07/28 10:32:44;;;;;;;2.95;0.88;;;19.30;99.90;;;;;;6284428;22;20051;-85
2022/07/28 10:35:15;;;;;;;2.28;0.90;;;19.30;99.90;;;;;;6311800;22;20072;-85
2022/07/28 10:37:52;;;;;;;6.63;1.00;;;19.30;99.90;;;;;;6310874;22;20042;-84
2022/07/28 10:40:24;;;;;;;2.30;0.90;;;19.30;99.90;;;;;;6309772;22;20011;-84
2022/07/28 10:42:52;;;;;;;2.17;0.70;;;19.20;99.90;;;;;;6309605;22;20011;-84
2022/07/28 10:45:17;;;;;;;4.03;1.10;;;19.10;99.90;;;;;;6281438;22;20015;-85
2022/07/28 10:47:44;;;;;;;2.13;0.90;;;19.10;99.90;;;;;;6309553;22;20065;-86
2022/07/28 10:50:09;;;;;;;2.95;1.00;;;19.10;99.90;;;;;;6282065;22;20022;-86
2022/07/28 10:52:37;;;;;;;2.70;0.70;;;19.20;99.90;;;;;;6309218;22;20008;-85
2022/07/28 10:55:24;;;;;;;2.25;0.93;;;19.20;99.90;;;;;;6281635;22;20341;-87
2022/07/28 10:58:09;;;;;;;3.88;0.88;;;19.30;99.90;;;;;;6281526;22;20015;-87
2022/07/28 11:00:45;;;;;;;3.92;0.90;;;19.20;99.90;;;;;;6308617;22;20360;-85
2022/07/28 11:03:41;;;;;;;2.72;0.90;;;19.20;99.90;;;;;;6281215;22;20380;-87
2022/07/28 11:06:37;;;;;;;3.53;1.00;;;19.20;99.90;;;;;;6281610;22;20068;-86
2022/07/28 11:09:14;;;;;;;3.08;1.00;;;19.30;99.90;;;;;;6281770;22;20060;-86
2022/07/28 11:11:51;;;;;;;2.95;0.88;;;19.50;99.90;;;;;;6281527;22;20340;-88
2022/07/28 11:14:23;;;;;;;5.45;1.20;;;19.80;99.90;;;;;;6309212;22;20007;-87
2022/07/28 11:16:50;;;;;;;3.63;1.15;;;20.00;99.90;;;;;;6281453;22;20321;-86
2022/07/28 11:19:17;;;;;;;2.88;0.90;;;20.10;99.90;;;;;;6308848;22;20068;-88
2022/07/28 11:22:14;;;;;;;3.17;1.00;;;20.10;99.90;;;;;;6308822;22;20011;-86
2022/07/28 11:25:01;;;;;;;3.53;1.00;;;19.90;99.90;;;;;;6281463;22;20023;-86
2022/07/28 11:27:40;;;;;;;4.05;1.15;;;19.80;99.90;;;;;;6255180;22;20472;-86
2022/07/28 11:30:24;;;;;;;3.33;1.00;;;19.70;99.90;;;;;;6308355;22;20067;-86
2022/07/28 11:32:49;;;;;;;4.10;1.00;;;19.60;99.90;;;;;;6280736;22;20456;-86
2022/07/28 11:35:16;;;;;;;2.15;0.85;;;19.50;99.90;;;;;;6281143;22;20016;-86
2022/07/28 11:39:52;;;;;;;5.43;1.23;;;19.40;99.90;;;;;;5133154;27;20950;-85
2022/07/28 11:42:31;;;;;;;2.47;0.90;;;19.40;99.90;;;;;;5132731;28;20027;-88
2022/07/28 11:45:17;;;;;;;2.88;0.82;;;19.40;99.90;;;;;;5131847;28;20394;-83
2022/07/28 11:47:42;;;;;;;4.95;1.25;;;19.40;99.90;;;;;;5131704;28;20045;-82
2022/07/28 11:50:16;;;;;;;33.10;5.93;;;19.40;99.90;;;;;;5131069;28;20461;-83
2022/07/28 11:52:53;;;;;;;11.82;1.90;;;19.40;99.90;;;;;;5131336;28;20092;-85
2022/07/28 11:55:19;;;;;;;8.45;0.90;;;19.60;99.90;;;;;;5131491;28;20425;-84
2022/07/28 11:57:46;;;;;;;6.78;1.23;;;19.80;99.90;;;;;;5131113;28;20043;-86
2022/07/28 12:00:19;;;;;;;2.60;0.82;;;20.10;99.90;;;;;;5131197;28;20122;-86
2022/07/28 12:02:45;;;;;;;3.95;0.88;;;20.40;99.90;;;;;;5131493;28;20035;-85
2022/07/28 12:05:12;;;;;;;4.82;1.40;;;20.70;99.90;;;;;;5131736;28;20039;-85
2022/07/28 12:07:41;;;;;;;220.90;22.88;;;20.90;99.90;;;;;;5132891;27;20031;-84
2022/07/28 12:10:34;;;;;;;3.83;1.30;;;21.10;99.90;;;;;;5130822;28;20043;-85
2022/07/28 12:13:06;;;;;;;3.33;0.90;;;21.20;99.90;;;;;;5131395;28;20035;-84
2022/07/28 12:15:32;;;;;;;4.05;0.93;;;21.30;99.90;;;;;;5114039;28;20122;-85
2022/07/28 12:17:58;;;;;;;14.80;1.95;;;21.50;99.90;;;;;;5113574;28;20083;-84
2022/07/28 12:20:30;;;;;;;4.90;1.25;;;21.50;99.90;;;;;;5129474;28;20069;-77
2022/07/28 12:23:06;;;;;;;3.42;1.23;;;21.40;99.90;;;;;;5130524;28;20039;-83
2022/07/28 12:25:45;;;;;;;2.70;0.80;;;21.30;99.90;;;;;;5129004;28;20046;-74
2022/07/28 12:28:16;;;;;;;4.28;0.90;;;21.40;99.90;;;;;;5127779;28;20039;-72
2022/07/28 12:30:41;;;;;;;3.63;1.00;;;21.50;99.90;;;;;;5110573;28;20479;-73
2022/07/28 12:33:24;;;;;;;4.45;1.10;;;21.60;99.90;;;;;;5109290;28;20081;-75
2022/07/28 12:35:56;;;;;;;3.67;1.05;;;21.50;99.90;;;;;;5092382;28;20494;-74
2022/07/28 12:38:26;;;;;;;9.07;1.63;;;21.40;99.90;;;;;;5109384;28;20564;-91
2022/07/28 12:40:53;;;;;;;5.13;1.23;;;21.30;99.90;;;;;;5093299;28;20039;-84
2022/07/28 12:43:35;;;;;;;4.50;1.05;;;21.20;99.90;;;;;;5111138;28;20517;-86
2022/07/28 12:46:01;;;;;;;3.00;1.10;;;21.10;99.90;;;;;;5109256;28;20044;-75
2022/07/28 12:48:27;;;;;;;3.10;1.48;;;21.10;99.90;;;;;;5111237;28;20367;-81
2022/07/28 12:50:52;;;;;;;2.75;1.00;;;21.20;99.90;;;;;;5108788;28;20047;-84
2022/07/28 12:53:21;;;;;;;1.52;0.90;;;21.20;99.90;;;;;;5096178;28;20202;-83
2022/07/28 12:55:47;;;;;;;3.72;0.75;;;21.30;99.90;;;;;;5080511;28;20066;-82
2022/07/28 12:58:25;;;;;;;2.15;0.90;;;21.30;99.90;;;;;;5095056;28;20044;-81
2022/07/28 13:00:51;;;;;;;3.65;0.90;;;21.40;99.90;;;;;;5097767;28;20101;-84
2022/07/28 13:03:32;;;;;;;2.25;0.80;;;21.50;99.90;;;;;;5095739;28;20052;-81
2022/07/28 13:06:08;;;;;;;2.17;0.80;;;21.50;99.90;;;;;;5118440;28;20047;-80
2022/07/28 13:08:45;;;;;;;5.18;1.05;;;21.70;99.90;;;;;;5114201;28;20184;-82
2022/07/28 13:11:13;;;;;;;2.75;1.00;;;22.00;99.90;;;;;;5114732;28;20514;-80
2022/07/28 13:13:50;;;;;;;3.35;1.05;;;22.20;99.90;;;;;;5115154;28;20438;-80
2022/07/28 13:16:18;;;;;;;3.35;0.88;;;22.00;99.90;;;;;;5114282;28;20054;-81
2022/07/28 13:18:50;;;;;;;3.03;0.90;;;21.80;99.90;;;;;;5116913;28;20115;-80
2022/07/28 13:21:45;;;;;;;1.83;0.85;;;21.70;99.90;;;;;;5115392;28;20084;-80
2022/07/28 13:24:13;;;;;;;2.28;0.90;;;21.50;99.90;;;;;;5115494;28;20087;-80
2022/07/28 13:26:40;;;;;;;1.08;0.70;;;21.40;99.90;;;;;;5115185;28;20043;-78
2022/07/28 13:29:07;;;;;;;3.72;1.00;;;21.40;99.90;;;;;;5116226;28;20040;-81
2022/07/28 13:31:34;;;;;;;3.95;1.05;;;21.50;99.90;;;;;;5114957;28;20071;-80
2022/07/28 13:34:01;;;;;;;3.22;0.82;;;21.80;99.90;;;;;;5114957;28;20477;-79
2022/07/28 13:36:27;;;;;;;3.03;0.90;;;22.00;99.90;;;;;;5115033;28;20127;-80
2022/07/28 13:38:52;;;;;;;3.00;0.93;;;22.30;99.90;;;;;;5115091;28;20153;-81
2022/07/28 13:41:18;;;;;;;6.65;1.20;;;22.50;99.90;;;;;;5114408;28;20035;-81
2022/07/28 13:43:45;;;;;;;2.42;0.90;;;22.60;99.90;;;;;;5114768;28;20039;-80
2022/07/28 13:46:11;;;;;;;3.00;0.85;;;22.50;99.90;;;;;;5114881;28;20039;-80
2022/07/28 13:48:40;;;;;;;3.35;0.88;;;22.40;99.90;;;;;;5114687;28;20104;-79
2022/07/28 13:51:09;;;;;;;2.25;0.80;;;22.20;99.90;;;;;;5114590;28;20051;-80
2022/07/28 13:53:36;;;;;;;2.88;0.93;;;22.00;99.90;;;;;;5114713;28;20394;-80
2022/07/28 13:56:01;;;;;;;3.35;0.88;;;21.90;99.90;;;;;;5114438;28;20056;-80
2022/07/28 13:58:27;;;;;;;5.28;1.00;;;21.70;99.90;;;;;;5114389;28;20445;-79
2022/07/28 14:00:53;;;;;;;2.95;1.02;;;21.60;99.90;;;;;;5096925;28;20044;-78
2022/07/28 14:03:18;;;;;;;3.20;1.00;;;21.80;99.90;;;;;;5113796;28;20044;-78
2022/07/28 14:05:44;;;;;;;2.92;0.90;;;22.10;99.90;;;;;;5114020;28;20046;-82
2022/07/28 14:08:11;;;;;;;2.00;0.90;;;22.40;99.90;;;;;;5114436;28;20042;-79
2022/07/28 14:10:37;;;;;;;2.78;1.08;;;22.60;99.90;;;;;;5114633;28;20085;-81
2022/07/28 14:13:03;;;;;;;5.22;1.00;;;22.80;99.90;;;;;;5097230;28;20627;-81
2022/07/28 14:15:29;;;;;;;2.75;1.05;;;22.90;99.90;;;;;;5097266;28;20149;-80
2022/07/28 14:17:55;;;;;;;3.50;0.82;;;22.80;99.90;;;;;;5114455;28;20127;-85
2022/07/28 14:20:20;;;;;;;2.58;0.90;;;22.70;99.60;;;;;;5115303;28;20478;-79
2022/07/28 14:22:46;;;;;;;3.05;0.80;;;22.70;99.90;;;;;;5115183;28;20039;-79
2022/07/28 14:25:12;;;;;;;2.72;0.90;;;22.90;99.10;;;;;;5115404;28;20032;-79
2022/07/28 14:27:40;;;;;;;2.38;0.85;;;23.00;98.20;;;;;;5113740;28;20039;-80
2022/07/28 14:30:06;;;;;;;2.03;1.00;;;23.20;97.60;;;;;;5115601;28;20119;-80
2022/07/28 14:32:32;;;;;;;2.85;1.00;;;23.30;97.90;;;;;;5114452;28;20375;-80
2022/07/28 14:34:57;;;;;;;3.53;1.02;;;23.40;97.80;;;;;;5114646;28;20043;-81
2022/07/28 14:37:23;;;;;;;2.88;0.80;;;23.60;97.80;;;;;;5113715;28;20403;-81
2022/07/28 14:39:49;;;;;;;4.38;0.93;;;23.70;97.60;;;;;;5113704;28;20085;-80
2022/07/28 14:42:14;;;;;;;2.65;1.00;;;23.70;97.30;;;;;;5113731;28;20074;-81
2022/07/28 14:44:40;;;;;;;3.10;0.88;;;23.40;96.80;;;;;;5097020;28;20040;-79
2022/07/28 14:47:06;;;;;;;1.67;0.90;;;23.10;96.50;;;;;;5113906;28;20040;-80
2022/07/28 14:49:33;;;;;;;3.47;1.05;;;22.80;96.90;;;;;;5096210;28;20031;-81
2022/07/28 14:51:58;;;;;;;4.20;1.08;;;22.60;96.80;;;;;;5113353;28;20405;-80
2022/07/28 14:54:24;;;;;;;5.05;0.90;;;22.30;97.20;;;;;;5114012;28;20043;-80
2022/07/28 14:56:50;;;;;;;2.88;1.00;;;22.20;97.50;;;;;;5113474;28;20097;-81
2022/07/28 14:59:16;;;;;;;4.07;1.00;;;22.30;97.40;;;;;;5113516;28;20039;-80
2022/07/28 15:01:42;;;;;;;1.92;0.70;;;22.40;97.40;;;;;;5113669;28;20044;-80
2022/07/28 15:04:09;;;;;;;4.32;1.02;;;22.60;97.00;;;;;;5114857;28;20039;-80
2022/07/28 15:06:34;;;;;;;2.30;0.90;;;22.80;96.80;;;;;;5113215;28;20114;-80
2022/07/28 15:09:00;;;;;;;4.03;1.20;;;23.00;96.40;;;;;;5113355;28;20119;-80
2022/07/28 15:11:26;;;;;;;2.05;0.80;;;23.30;96.60;;;;;;5112817;28;20105;-80
2022/07/28 15:13:52;;;;;;;2.92;0.80;;;23.30;95.40;;;;;;5113401;28;20042;-79
2022/07/28 15:16:17;;;;;;;3.15;0.98;;;23.40;95.50;;;;;;5113189;28;20567;-79
2022/07/28 15:18:43;;;;;;;2.60;1.00;;;23.20;95.40;;;;;;5113200;28;20044;-78
2022/07/28 15:21:16;;;;;;;2.92;1.00;;;23.00;95.50;;;;;;5113157;28;20557;-78
2022/07/28 15:23:42;;;;;;;2.83;1.00;;;22.90;95.80;;;;;;5114600;28;20114;-79
2022/07/28 15:26:08;;;;;;;3.08;1.20;;;22.70;95.90;;;;;;5112735;28;20523;-80
2022/07/28 15:28:34;;;;;;;4.13;0.93;;;22.80;96.10;;;;;;5112672;28;20222;-79
2022/07/28 15:31:00;;;;;;;2.40;1.00;;;22.90;95.80;;;;;;5095577;28;20103;-78
2022/07/28 15:33:26;;;;;;;3.60;0.88;;;23.20;96.00;;;;;;5112733;28;20075;-79
2022/07/28 15:35:52;;;;;;;2.03;0.90;;;23.20;95.90;;;;;;5112846;28;20040;-78
2022/07/28 15:38:19;;;;;;;2.00;0.85;;;23.20;95.50;;;;;;5112395;28;20126;-79
2022/07/28 15:40:45;;;;;;;2.85;0.98;;;23.00;95.10;;;;;;5114217;28;20219;-79
2022/07/28 15:43:10;;;;;;;3.20;1.10;;;22.80;95.10;;;;;;5112907;28;20067;-79
2022/07/28 15:45:36;;;;;;;3.75;1.00;;;22.60;95.60;;;;;;5095985;28;20062;-80
2022/07/28 15:48:02;;;;;;;2.95;0.90;;;22.50;95.10;;;;;;5112796;28;20087;-79
2022/07/28 15:50:27;;;;;;;2.30;0.88;;;22.70;95.70;;;;;;5114127;28;20081;-78
2022/07/28 15:52:53;;;;;;;2.95;1.10;;;22.90;95.30;;;;;;5095573;28;20039;-78
2022/07/28 15:55:20;;;;;;;2.63;0.80;;;23.10;94.90;;;;;;5113271;28;20043;-79
2022/07/28 15:57:46;;;;;;;3.03;1.00;;;23.20;94.60;;;;;;5113288;28;20062;-78
2022/07/28 16:00:12;;;;;;;4.60;1.20;;;23.30;94.90;;;;;;5114956;28;20509;-80
2022/07/28 16:02:38;;;;;;;3.33;0.98;;;23.40;95.20;;;;;;5112776;28;20083;-80
2022/07/28 16:05:04;;;;;;;3.78;0.88;;;23.50;95.20;;;;;;5114027;28;20067;-80
2022/07/28 16:07:32;;;;;;;2.83;0.70;;;23.60;94.80;;;;;;5112524;28;20078;-80
2022/07/28 16:09:58;;;;;;;3.80;0.93;;;23.70;95.30;;;;;;5112338;28;20475;-79
2022/07/28 16:12:24;;;;;;;3.15;0.90;;;23.60;95.10;;;;;;5112365;28;20043;-78
2022/07/28 16:14:52;;;;;;;2.20;0.80;;;23.30;94.60;;;;;;5112796;28;20035;-80
2022/07/28 16:17:19;;;;;;;3.17;1.00;;;23.30;95.10;;;;;;5095205;28;20470;-79
2022/07/28 16:19:45;;;;;;;3.53;0.98;;;23.20;94.90;;;;;;5113471;28;20047;-79
2022/07/28 16:22:11;;;;;;;3.13;0.80;;;23.30;95.10;;;;;;5111998;28;20043;-79
2022/07/28 16:24:37;;;;;;;4.20;0.73;;;23.30;94.80;;;;;;5113405;28;20034;-79
2022/07/28 16:27:03;;;;;;;3.22;0.90;;;23.30;94.50;;;;;;5117811;28;20067;-79
2022/07/28 16:29:29;;;;;;;3.13;1.08;;;23.30;94.60;;;;;;5115395;28;20052;-80
2022/07/28 16:31:55;;;;;;;6.70;0.90;;;23.20;94.90;;;;;;5117567;28;20047;-80
2022/07/28 16:34:20;;;;;;;3.33;1.27;;;23.00;94.90;;;;;;5099293;28;20123;-83
2022/07/28 16:36:46;;;;;;;3.58;0.93;;;23.00;95.00;;;;;;5099339;28;20040;-78
2022/07/28 16:39:12;;;;;;;2.38;0.75;;;22.90;95.10;;;;;;5117380;27;20097;-80
2022/07/28 16:41:38;;;;;;;5.88;0.80;;;22.80;95.30;;;;;;5116220;28;20040;-80
2022/07/28 16:44:04;;;;;;;4.10;0.93;;;22.70;95.40;;;;;;5098875;28;20036;-80
2022/07/28 16:46:29;;;;;;;2.88;0.93;;;22.50;95.60;;;;;;5116678;28;20044;-81
2022/07/28 16:48:56;;;;;;;4.07;0.80;;;22.30;95.90;;;;;;5099573;28;20047;-80
2022/07/28 16:51:22;;;;;;;3.13;1.00;;;22.20;96.60;;;;;;5116633;28;20046;-82
2022/07/28 16:53:48;;;;;;;2.65;1.00;;;22.10;96.60;;;;;;5115857;28;20395;-80
2022/07/28 16:56:17;;;;;;;3.78;1.48;;;22.00;96.40;;;;;;5116222;28;20429;-82
2022/07/28 16:58:44;;;;;;;4.25;1.45;;;21.90;96.80;;;;;;5115997;28;20036;-81
2022/07/28 17:01:14;;;;;;;4.90;1.83;;;22.00;97.10;;;;;;5115834;28;20036;-80
2022/07/28 17:03:40;;;;;;;6.13;2.42;;;22.00;96.80;;;;;;5116147;28;20402;-81
2022/07/28 17:06:07;;;;;;;14.60;7.78;;;22.00;96.50;;;;;;5116793;28;20405;-80
2022/07/28 17:08:33;;;;;;;3.60;1.80;;;22.00;96.70;;;;;;5116915;28;20387;-80
2022/07/28 17:10:59;;;;;;;6.47;2.28;;;22.00;97.00;;;;;;5098235;28;20451;-81
2022/07/28 17:13:24;;;;;;;3.75;1.05;;;21.90;96.90;;;;;;5115085;28;20043;-78
2022/07/28 17:15:51;;;;;;;2.65;1.20;;;21.80;97.10;;;;;;5115147;28;20104;-79
2022/07/28 17:18:17;;;;;;;9.27;6.05;;;21.80;97.50;;;;;;5115033;28;20127;-79
2022/07/28 17:20:43;;;;;;;3.67;1.52;;;21.80;98.00;;;;;;5098714;28;20510;-79
2022/07/28 17:23:09;;;;;;;5.43;1.83;;;21.80;98.20;;;;;;5098951;28;20035;-78
2022/07/28 17:25:35;;;;;;;1.88;0.85;;;21.90;98.20;;;;;;5115837;28;20047;-82
2022/07/28 17:28:02;;;;;;;2.85;0.90;;;21.80;98.00;;;;;;5097696;28;20088;-83
2022/07/28 17:30:28;;;;;;;2.72;1.00;;;21.70;97.60;;;;;;5114252;28;20040;-80
2022/07/28 17:32:54;;;;;;;6.00;3.45;;;21.60;97.80;;;;;;5115484;28;20039;-82
2022/07/28 17:35:20;;;;;;;8.02;3.63;;;21.50;98.50;;;;;;5116397;28;20035;-84
2022/07/28 17:37:46;;;;;;;2.47;0.93;;;21.50;98.40;;;;;;5115889;28;20050;-82
2022/07/28 17:40:12;;;;;;;7.13;1.20;;;21.40;98.50;;;;;;5116295;28;20031;-81
2022/07/28 17:42:37;;;;;;;4.07;1.75;;;21.30;98.50;;;;;;5114512;28;20035;-81
2022/07/28 17:45:04;;;;;;;4.07;1.25;;;21.10;99.30;;;;;;5114999;28;20044;-82
2022/07/28 17:47:30;;;;;;;1.80;0.80;;;21.10;99.40;;;;;;5114694;28;20043;-81
2022/07/28 17:49:55;;;;;;;4.63;0.90;;;20.90;99.90;;;;;;5114699;28;20036;-83
2022/07/28 17:52:21;;;;;;;3.45;1.17;;;20.80;99.90;;;;;;5115965;28;20122;-80
2022/07/28 17:57:31;;;;;;;3.38;0.95;;;20.60;99.90;;;;;;5114575;28;20054;-80
2022/07/28 17:59:56;;;;;;;3.83;0.90;;;20.50;99.90;;;;;;5097127;28;20035;-81
2022/07/28 18:02:22;;;;;;;2.83;0.75;;;20.40;99.90;;;;;;5114412;28;20124;-81
2022/07/28 18:04:48;;;;;;;2.15;0.90;;;20.40;99.90;;;;;;5114496;28;20098;-83
2022/07/28 18:07:14;;;;;;;3.42;1.10;;;20.30;99.90;;;;;;5114271;28;20043;-83
2022/07/28 18:09:40;;;;;;;4.63;0.80;;;20.20;99.90;;;;;;5114162;28;20074;-82
2022/07/28 18:12:09;;;;;;;3.42;0.90;;;20.20;99.90;;;;;;5114290;28;20047;-84
2022/07/28 18:14:35;;;;;;;2.92;0.88;;;20.10;99.90;;;;;;5114506;28;20348;-81
2022/07/28 18:17:01;;;;;;;3.25;0.98;;;20.10;99.90;;;;;;5114974;28;20049;-82
2022/07/28 18:19:27;;;;;;;5.05;0.82;;;20.00;99.90;;;;;;5097557;28;20075;-83
2022/07/28 18:21:54;;;;;;;2.47;0.80;;;19.90;99.90;;;;;;5115085;28;20032;-81
2022/07/28 18:24:21;;;;;;;3.53;0.90;;;19.90;99.90;;;;;;5114065;28;20039;-82
2022/07/28 18:26:50;;;;;;;2.30;0.90;;;19.80;99.90;;;;;;5114130;28;20082;-82
2022/07/28 18:29:17;;;;;;;3.47;1.00;;;19.80;99.90;;;;;;5115031;28;20363;-82
2022/07/28 18:31:42;;;;;;;3.05;0.93;;;19.70;99.90;;;;;;5114720;28;20040;-83
2022/07/28 18:34:08;;;;;;;2.30;0.88;;;19.60;99.90;;;;;;5114768;28;20392;-82
2022/07/28 18:36:34;;;;;;;4.65;1.10;;;19.60;99.90;;;;;;5114885;28;20050;-82